Time;durP1;ratioP1;P1;durP2;ratioP2;P2;SDS_P1;SDS_P2;PMS_P1;PMS_P2;Temp;Humidity;BMP_temperature;BMP_pressure;BME280_temperature;BME280_humidity;BME280_pressure;Samples;Min_cycle;Max_cycle;Signal;HPM_P1;HPM_P2
2021/01/25 02:15:19;;;;;;;2.53;1.70;;;;;;;2.93;63.82;98772.28;6378516;22;20044;-91
2021/01/25 02:52:52;;;;;;;2.25;2.05;;;;;;;6.61;63.12;99367.53;6415849;22;20021;-90
2021/01/25 02:55:33;;;;;;;2.53;2.20;;;;;;;5.09;63.28;99132.00;6390826;22;20026;-90
2021/01/25 03:02:32;;;;;;;2.38;2.10;;;;;;;6.13;63.12;99279.34;6423457;22;20047;-92
2021/01/25 03:13:09;;;;;;;2.30;2.10;;;;;;;6.73;63.73;99373.41;6423817;22;20476;-91
2021/01/25 03:19:20;;;;;;;2.65;2.38;;;;;;;6.60;63.67;99372.91;6390908;22;20036;-91
2021/01/25 03:55:13;;;;;;;3.20;2.85;;;;;;;6.61;63.29;99400.50;6389610;22;20017;-90
2021/01/25 04:01:42;;;;;;;4.75;2.80;;;;;;;6.32;63.49;99338.19;6421894;22;20024;-91
2021/01/25 04:04:48;;;;;;;3.20;2.80;;;;;;;6.49;64.01;99389.44;6365094;22;20021;-90
2021/01/25 04:07:37;;;;;;;3.85;2.75;;;;;;;6.60;63.03;99404.88;6395268;22;20048;-92
2021/01/25 04:10:17;;;;;;;3.08;2.78;;;;;;;5.79;63.70;99277.09;6363966;22;20021;-92
2021/01/25 04:12:58;;;;;;;3.10;2.67;;;;;;;6.35;63.41;99380.28;6381012;22;20018;-91
2021/01/25 04:15:26;;;;;;;4.20;3.20;;;;;;;6.40;64.02;99375.50;6382263;22;20043;-92
2021/01/25 04:18:09;;;;;;;3.22;2.88;;;;;;;6.63;64.07;99419.38;6386167;22;20039;-91
2021/01/25 04:20:51;;;;;;;4.10;3.28;;;;;;;6.13;63.75;99347.63;6384237;22;20067;-91
2021/01/25 04:23:19;;;;;;;4.32;3.30;;;;;;;6.38;63.76;99382.59;6378528;22;20030;-91
2021/01/25 04:25:59;;;;;;;2.97;2.55;;;;;;;6.53;63.23;99395.19;6360864;22;20022;-91
2021/01/25 04:28:40;;;;;;;2.58;2.38;;;;;;;5.45;63.32;99222.22;6381428;22;20018;-90
2021/01/25 04:31:06;;;;;;;2.80;2.53;;;;;;;6.39;63.55;99381.63;6408178;22;20070;-91
2021/01/25 04:33:32;;;;;;;2.72;2.40;;;;;;;6.37;63.74;99399.13;6354325;22;20395;-90
2021/01/25 04:35:58;;;;;;;2.53;2.33;;;;;;;5.85;64.06;99292.13;6382059;22;20026;-90
2021/01/25 04:38:24;;;;;;;4.03;2.50;;;;;;;6.44;63.75;99389.84;6354938;22;20016;-90
2021/01/25 07:52:26;;;;;;;5.28;3.92;;;;;;;2.10;63.23;98920.97;6384473;22;20018;-90
2021/01/25 07:58:15;;;;;;;4.43;3.50;;;;;;;4.84;63.62;99350.91;6403948;22;20014;-90
2021/01/25 08:00:42;;;;;;;5.15;3.60;;;;;;;1.86;63.56;98870.44;6387218;22;20043;-91
2021/01/25 08:51:46;;;;;;;6.63;4.25;;;;;;;6.53;64.30;99637.56;6415392;22;20429;-92
2021/01/25 08:54:34;;;;;;;4.45;3.35;;;;;;;3.26;63.49;99114.72;6336291;22;20037;-93
2021/01/25 09:27:54;;;;;;;4.40;3.60;;;;;;;6.22;63.17;99587.41;6408162;22;20021;-90
2021/01/25 09:30:34;;;;;;;6.18;3.72;;;;;;;6.47;63.61;99664.06;6383857;22;20017;-91
2021/01/25 09:33:34;;;;;;;6.80;4.93;;;;;;;5.49;63.85;99495.84;6385579;22;20088;-90
2021/01/25 09:36:15;;;;;;;5.63;3.88;;;;;;;6.61;63.86;99681.88;6385221;22;20080;-91
2021/01/25 09:38:41;;;;;;;6.93;4.35;;;;;;;4.80;64.07;99401.34;6354954;22;20045;-91
2021/01/25 09:45:36;;;;;;;4.15;3.65;;;;;;;6.67;63.54;99676.16;6415611;22;20037;-92
2021/01/25 09:48:17;;;;;;;;;;;;;;;6.86;63.40;99696.19;6411108;22;20024;-92
2021/01/25 09:50:58;;;;;;;4.20;3.60;;;;;;;6.07;63.22;99612.91;6384172;22;19913;-91
2021/01/25 09:53:29;;;;;;;5.60;4.05;;;;;;;6.76;63.92;99703.16;6354834;22;20022;-93
2021/01/25 09:56:11;;;;;;;;;;;;;;;6.91;63.27;99699.22;6364233;22;20022;-91
2021/01/25 09:58:38;;;;;;;4.88;3.75;;;;;;;6.74;63.89;99712.84;6408347;22;19914;-93
2021/01/25 10:01:58;;;;;;;4.55;4.07;;;;;;;6.90;62.86;99718.38;6363855;22;20018;-91
2021/01/25 10:04:39;;;;;;;4.90;3.65;;;;;;;6.72;63.24;99725.13;6386424;22;20344;-92
2021/01/25 10:07:19;;;;;;;4.28;3.47;;;;;;;6.59;63.19;99711.53;6384420;22;20029;-91
2021/01/25 10:10:40;;;;;;;5.78;4.22;;;;;;;6.75;62.85;99731.84;6408448;22;20014;-91
2021/01/25 10:13:13;;;;;;;5.90;3.90;;;;;;;6.75;63.59;99734.44;6407828;22;20029;-91
2021/01/25 10:15:54;;;;;;;4.47;3.83;;;;;;;6.22;63.08;99657.53;6335779;22;20018;-91
2021/01/25 10:18:34;;;;;;;5.65;4.15;;;;;;;6.71;62.89;99741.69;6386403;22;20017;-91
2021/01/25 10:21:01;;;;;;;6.93;4.20;;;;;;;2.80;62.80;99118.38;6356933;22;20089;-91
2021/01/25 10:23:28;;;;;;;5.70;4.07;;;;;;;5.36;63.25;99527.16;6381814;22;20096;-91
2021/01/25 10:25:55;;;;;;;5.43;4.28;;;;;;;6.68;63.60;99739.34;6361088;22;20018;-91
2021/01/25 10:28:22;;;;;;;4.30;3.60;;;;;;;6.72;63.39;99740.72;6323631;22;20022;-90
2021/01/25 10:30:49;;;;;;;3.95;3.47;;;;;;;4.94;63.23;99493.44;6373906;22;20023;-91
2021/01/25 10:33:16;;;;;;;5.28;3.85;;;;;;;5.28;63.41;99532.97;6375869;22;20018;-91
2021/01/25 10:35:43;;;;;;;5.05;3.85;;;;;;;2.81;63.12;99128.59;6351318;22;20018;-91
2021/01/25 10:38:10;;;;;;;5.53;4.15;;;;;;;4.42;62.65;99392.31;6348505;22;20014;-91
2021/01/25 10:40:37;;;;;;;5.13;3.63;;;;;;;6.55;63.22;99730.94;6374494;22;20442;-90
2021/01/25 10:43:03;;;;;;;5.30;4.00;;;;;;;3.05;63.11;99181.84;6368418;22;20022;-90
2021/01/25 10:45:33;;;;;;;5.18;3.72;;;;;;;6.49;63.52;99708.91;6371047;22;20018;-91
2021/01/25 10:48:07;;;;;;;4.60;3.70;;;;;;;4.75;62.95;99444.09;6371264;22;20529;-91
2021/01/25 10:50:47;;;;;;;5.47;3.95;;;;;;;6.33;63.26;99704.19;6372609;22;20029;-92
2021/01/25 10:53:14;;;;;;;3.92;3.22;;;;;;;5.01;62.90;99488.56;6374216;22;20195;-91
2021/01/25 10:55:40;;;;;;;5.03;3.42;;;;;;;4.98;63.03;99491.44;6375254;22;20042;-93
2021/01/25 10:58:11;;;;;;;5.88;3.72;;;;;;;6.91;63.75;99774.59;6374324;22;20071;-91
2021/01/25 11:00:38;;;;;;;4.45;3.20;;;;;;;6.71;63.15;99754.69;6349338;22;20067;-91
2021/01/25 11:03:07;;;;;;;5.68;3.60;;;;;;;2.49;62.91;99097.56;6371052;22;20059;-91
2021/01/25 11:05:36;;;;;;;4.65;3.65;;;;;;;2.97;63.03;99158.38;6371390;22;20041;-91
2021/01/25 11:08:03;;;;;;;3.80;3.05;;;;;;;6.73;63.91;99762.34;6370583;22;20762;-93
2021/01/25 11:10:30;;;;;;;3.78;3.13;;;;;;;3.14;62.58;99188.84;6372484;22;20029;-92
2021/01/25 11:12:56;;;;;;;5.00;3.53;;;;;;;3.25;63.46;99204.31;6345747;22;20064;-92
2021/01/25 11:15:23;;;;;;;4.78;3.75;;;;;;;3.95;62.85;99315.97;6372004;22;20041;-93
2021/01/25 11:17:49;;;;;;;6.10;4.18;;;;;;;5.25;63.43;99506.47;6371260;22;20038;-93
2021/01/25 11:20:17;;;;;;;6.53;3.90;;;;;;;2.89;62.24;99135.75;6371478;22;20051;-92
2021/01/25 11:22:44;;;;;;;4.82;3.63;;;;;;;5.49;63.07;99540.75;6371567;22;20023;-93
2021/01/25 11:25:11;;;;;;;4.97;3.35;;;;;;;3.11;63.34;99171.84;6371227;22;20022;-92
2021/01/25 11:27:37;;;;;;;4.50;3.53;;;;;;;6.81;63.45;99749.50;6370690;22;20050;-93
2021/01/25 11:30:05;;;;;;;4.50;3.67;;;;;;;4.15;63.52;99340.22;6372432;22;20326;-93
2021/01/25 11:32:32;;;;;;;5.07;3.65;;;;;;;3.32;63.36;99205.47;6370645;22;20018;-93
2021/01/25 11:35:01;;;;;;;5.13;3.42;;;;;;;3.26;62.52;99200.78;6371777;22;20053;-92
2021/01/25 11:37:27;;;;;;;3.67;3.15;;;;;;;3.51;62.86;99233.25;6373393;22;20018;-92
2021/01/25 11:39:55;;;;;;;4.82;3.42;;;;;;;3.38;62.73;99196.44;6370552;22;20379;-92
2021/01/25 11:42:24;;;;;;;5.45;4.20;;;;;;;7.10;63.06;99786.03;6372679;22;20041;-92
2021/01/25 11:44:51;;;;;;;4.50;3.33;;;;;;;3.25;62.79;99182.84;6372347;22;20014;-91
2021/01/25 11:47:17;;;;;;;4.70;3.47;;;;;;;5.65;63.17;99562.78;6372230;22;20029;-91
2021/01/25 11:49:43;;;;;;;5.35;3.70;;;;;;;5.00;63.25;99455.84;6371731;22;20014;-92
2021/01/25 11:52:09;;;;;;;4.63;3.55;;;;;;;5.24;63.21;99517.81;6369145;22;20022;-91
2021/01/25 11:58:38;;;;;;;5.32;4.00;;;;;;;6.87;63.03;99720.41;6385248;22;20063;-92
2021/01/25 12:10:39;;;;;;;5.22;4.13;;;;;;;5.57;62.93;99585.03;6379287;22;20013;-92
2021/01/25 12:13:06;;;;;;;5.80;4.30;;;;;;;6.91;62.96;99756.41;6375280;22;20017;-92
2021/01/25 12:15:32;;;;;;;4.95;3.35;;;;;;;4.24;62.15;99327.38;6376894;22;20025;-92
2021/01/25 12:17:58;;;;;;;3.67;3.13;;;;;;;5.66;62.56;99580.03;6404517;22;20681;-92
2021/01/25 12:20:25;;;;;;;4.00;3.13;;;;;;;3.57;62.06;99237.09;6377052;22;20049;-92
2021/01/25 12:22:51;;;;;;;4.35;3.13;;;;;;;5.81;62.69;99576.94;6377859;22;20021;-92
2021/01/25 12:25:17;;;;;;;4.10;3.13;;;;;;;3.68;62.28;99237.06;6376158;22;20025;-92
2021/01/25 12:27:43;;;;;;;4.63;3.20;;;;;;;5.22;62.63;99478.22;6376521;22;20038;-92
2021/01/25 12:30:14;;;;;;;4.15;3.22;;;;;;;5.42;62.57;99525.81;6377579;22;20025;-92
2021/01/25 12:32:43;;;;;;;3.55;3.00;;;;;;;6.48;63.18;99682.13;6405938;22;20326;-92
2021/01/25 12:35:15;;;;;;;3.95;3.50;;;;;;;6.96;62.68;99765.59;6374906;22;20025;-92
2021/01/25 12:37:42;;;;;;;5.57;4.22;;;;;;;3.74;62.43;99240.91;6374520;22;20022;-92
2021/01/25 12:40:10;;;;;;;4.75;3.55;;;;;;;5.76;63.15;99565.31;6373871;22;20028;-91
2021/01/25 12:42:36;;;;;;;4.05;3.17;;;;;;;7.28;62.95;99812.22;6373314;22;20028;-92
2021/01/25 12:45:04;;;;;;;4.55;3.50;;;;;;;5.84;62.79;99573.28;6374629;22;20337;-92
2021/01/25 12:47:30;;;;;;;4.38;3.50;;;;;;;5.91;62.64;99595.19;6374591;22;20018;-92
2021/01/25 12:49:57;;;;;;;4.40;3.30;;;;;;;5.28;62.19;99503.63;6374914;22;20101;-92
2021/01/25 12:52:23;;;;;;;2.95;2.65;;;;;;;3.87;61.91;99277.78;6375137;22;20403;-92
2021/01/25 12:54:49;;;;;;;3.05;2.50;;;;;;;5.12;62.26;99465.19;6373998;22;20018;-93
2021/01/25 12:57:17;;;;;;;2.40;2.20;;;;;;;3.63;61.92;99225.44;6375795;22;20030;-92
2021/01/25 12:59:43;;;;;;;2.88;2.47;;;;;;;5.97;61.93;99599.06;6375612;22;20042;-92
2021/01/25 13:02:09;;;;;;;3.53;2.50;;;;;;;6.00;62.15;99598.81;6371899;22;20105;-92
2021/01/25 13:04:35;;;;;;;4.65;3.05;;;;;;;3.98;61.60;99295.84;6373382;22;20049;-92
2021/01/25 13:07:01;;;;;;;2.75;2.47;;;;;;;7.13;62.27;99796.16;6374150;22;20025;-92
2021/01/25 13:09:28;;;;;;;3.38;2.58;;;;;;;7.38;62.33;99821.69;6378771;22;20010;-92
2021/01/25 13:11:56;;;;;;;4.07;2.75;;;;;;;3.44;61.60;99197.72;6378374;22;20032;-92
2021/01/25 13:14:22;;;;;;;2.85;2.63;;;;;;;6.79;62.54;99749.66;6378299;22;20017;-92
2021/01/25 13:16:48;;;;;;;3.05;2.70;;;;;;;6.92;62.33;99762.41;6377483;22;20025;-92
2021/01/25 13:19:14;;;;;;;3.47;2.72;;;;;;;7.37;62.12;99827.03;6378904;22;20081;-91
2021/01/25 13:21:40;;;;;;;3.53;2.70;;;;;;;3.60;61.99;99262.72;6379061;22;20445;-92
2021/01/25 13:24:09;;;;;;;3.17;2.78;;;;;;;6.96;62.16;99783.78;6378478;22;20065;-92
2021/01/25 13:26:35;;;;;;;4.50;2.70;;;;;;;4.55;61.56;99415.47;6379221;22;20070;-92
2021/01/25 13:29:01;;;;;;;3.50;3.10;;;;;;;7.43;62.53;99862.94;6376847;22;20078;-91
2021/01/25 13:31:27;;;;;;;3.92;2.67;;;;;;;7.21;62.75;99822.34;6378073;22;20022;-91
2021/01/25 13:33:53;;;;;;;3.08;2.70;;;;;;;4.92;61.96;99446.13;6404332;22;20049;-91
2021/01/25 13:36:19;;;;;;;3.42;2.92;;;;;;;4.22;62.26;99365.47;6404395;22;20022;-92
2021/01/25 13:38:49;;;;;;;3.03;2.60;;;;;;;3.94;61.96;99296.22;6377743;22;20014;-91
2021/01/25 13:41:15;;;;;;;2.45;2.25;;;;;;;3.30;61.93;99209.13;6375892;22;20025;-92
2021/01/25 13:43:42;;;;;;;4.25;2.42;;;;;;;5.99;62.04;99623.13;6375790;22;20022;-92
2021/01/25 13:46:08;;;;;;;2.33;2.05;;;;;;;5.21;61.88;99510.25;6374330;22;20462;-91
2021/01/25 13:48:34;;;;;;;3.30;2.47;;;;;;;7.32;62.51;99850.03;6375542;22;20027;-92
2021/01/25 13:51:00;;;;;;;5.10;2.38;;;;;;;7.33;62.38;99857.69;6375789;22;20075;-91
2021/01/25 13:53:26;;;;;;;2.60;2.40;;;;;;;7.09;62.07;99815.56;6375879;22;20513;-92
2021/01/25 13:55:53;;;;;;;3.53;2.38;;;;;;;7.10;62.09;99838.84;6375860;22;20018;-91
2021/01/25 13:58:19;;;;;;;3.35;2.67;;;;;;;5.82;61.83;99620.13;6375594;22;20018;-91
2021/01/25 14:00:45;;;;;;;3.53;2.55;;;;;;;3.55;61.79;99259.69;6374963;22;20022;-91
2021/01/25 14:03:12;;;;;;;4.07;3.00;;;;;;;3.94;61.80;99328.06;6373527;22;20041;-91
2021/01/25 14:05:38;;;;;;;5.05;2.83;;;;;;;3.53;61.52;99266.75;6374626;22;20337;-92
2021/01/25 14:08:04;;;;;;;4.93;3.42;;;;;;;7.26;62.36;99858.34;6376978;22;20018;-92
2021/01/25 14:10:31;;;;;;;4.68;3.35;;;;;;;7.14;62.13;99845.41;6376171;22;20097;-92
2021/01/25 14:12:57;;;;;;;3.85;3.25;;;;;;;5.83;61.62;99649.47;6375452;22;20017;-92
2021/01/25 14:15:23;;;;;;;4.47;3.40;;;;;;;7.14;62.05;99850.63;6375688;22;20071;-91
2021/01/25 14:17:49;;;;;;;4.65;3.17;;;;;;;6.72;61.50;99774.50;6374241;22;20048;-91
2021/01/25 14:20:18;;;;;;;4.53;3.42;;;;;;;7.37;61.99;99879.88;6374500;22;20022;-91
2021/01/25 14:22:44;;;;;;;4.43;3.35;;;;;;;6.94;61.86;99825.50;6375799;22;20025;-91
2021/01/25 14:25:12;;;;;;;4.72;3.97;;;;;;;7.46;61.87;99906.91;6375068;22;20349;-92
2021/01/25 14:27:58;;;;;;;5.30;3.80;;;;;;;7.08;61.92;99839.94;6380479;22;20022;-91
2021/01/25 14:30:25;;;;;;;5.10;4.28;;;;;;;7.10;61.84;99869.22;6375945;22;20449;-91
2021/01/25 14:32:52;;;;;;;5.82;4.10;;;;;;;7.44;62.10;99907.97;6375350;22;20026;-92
2021/01/25 14:35:20;;;;;;;5.32;3.63;;;;;;;7.07;62.06;99851.28;6403412;22;20026;-91
2021/01/25 14:37:46;;;;;;;6.68;4.03;;;;;;;5.76;61.55;99637.94;6374312;22;20029;-92
2021/01/25 14:40:14;;;;;;;4.57;3.50;;;;;;;3.52;61.59;99284.03;6403919;22;20014;-91
2021/01/25 14:42:45;;;;;;;5.30;3.70;;;;;;;7.26;61.72;99858.34;6375817;22;20447;-91
2021/01/25 14:45:15;;;;;;;7.28;3.45;;;;;;;6.06;61.77;99686.53;6374571;22;20075;-91
2021/01/25 14:47:42;;;;;;;4.10;3.33;;;;;;;5.69;61.25;99650.63;6373476;22;20091;-91
2021/01/25 14:50:11;;;;;;;3.65;3.13;;;;;;;7.11;61.73;99868.25;6375826;22;20061;-91
2021/01/25 14:52:38;;;;;;;3.80;3.10;;;;;;;7.23;61.57;99900.19;6375701;22;20330;-92
2021/01/25 14:55:06;;;;;;;4.10;3.03;;;;;;;7.40;61.41;99923.03;6374796;22;20818;-91
2021/01/25 14:57:33;;;;;;;4.18;3.55;;;;;;;7.22;61.52;99904.59;6375037;22;20018;-91
2021/01/25 14:59:59;;;;;;;5.03;3.42;;;;;;;6.98;62.10;99880.63;6375284;22;20018;-91
2021/01/25 15:02:25;;;;;;;7.15;3.63;;;;;;;4.49;61.42;99483.28;6375612;22;20063;-91
2021/01/25 15:04:51;;;;;;;4.75;3.90;;;;;;;3.57;61.42;99338.75;6376865;22;20387;-91
2021/01/25 15:07:17;;;;;;;4.22;3.22;;;;;;;4.96;61.31;99586.56;6404591;22;20029;-91
2021/01/25 15:09:44;;;;;;;4.25;3.22;;;;;;;4.22;61.71;99479.34;6376883;22;20018;-92
2021/01/25 15:12:10;;;;;;;6.40;5.40;;;;;;;7.09;61.77;99930.78;6375852;22;20024;-91
2021/01/25 15:14:36;;;;;;;8.65;6.65;;;;;;;5.83;62.01;99719.53;6376853;22;20079;-91
2021/01/25 15:17:02;;;;;;;6.20;5.15;;;;;;;5.08;61.90;99601.97;6378683;22;20029;-91
2021/01/25 15:19:29;;;;;;;6.03;5.00;;;;;;;6.84;62.26;99903.41;6376837;22;20021;-91
2021/01/25 15:21:55;;;;;;;5.15;4.20;;;;;;;7.09;62.24;99937.75;6377408;22;20022;-91
2021/01/25 15:24:33;;;;;;;5.25;4.03;;;;;;;7.05;61.86;99918.19;6376877;22;20051;-92
2021/01/25 15:27:15;;;;;;;6.00;4.68;;;;;;;6.28;61.72;99815.38;6380103;22;20382;-92
2021/01/25 15:29:56;;;;;;;8.35;6.07;;;;;;;6.65;61.70;99877.28;6357727;22;20021;-91
2021/01/25 15:32:37;;;;;;;8.65;6.78;;;;;;;6.16;62.25;99806.00;6379716;22;20337;-91
2021/01/25 15:35:20;;;;;;;10.57;7.35;;;;;;;7.15;62.18;99965.88;6334210;22;20025;-91
2021/01/25 15:38:00;;;;;;;11.38;7.13;;;;;;;7.11;62.06;99972.28;6379986;22;20025;-93
2021/01/25 15:40:41;;;;;;;11.82;7.68;;;;;;;5.95;61.37;99791.22;6381299;22;20022;-93
2021/01/25 15:43:21;;;;;;;9.43;7.15;;;;;;;7.09;62.25;99980.19;6356682;22;20057;-93
2021/01/25 15:45:51;;;;;;;9.32;6.38;;;;;;;6.70;61.95;99924.50;6378990;22;20026;-93
2021/01/25 15:48:32;;;;;;;6.88;4.82;;;;;;;6.84;62.06;99942.38;6358281;22;20025;-92
2021/01/25 15:51:12;;;;;;;5.63;4.13;;;;;;;6.96;62.23;99963.16;6358387;22;20021;-92
2021/01/25 15:53:38;;;;;;;5.72;4.00;;;;;;;6.81;61.65;99942.63;6380058;22;20070;-92
2021/01/25 15:56:19;;;;;;;4.95;3.72;;;;;;;6.90;62.01;99967.91;6381859;22;20022;-93
2021/01/25 15:58:46;;;;;;;5.13;4.13;;;;;;;6.79;61.49;99957.56;6407610;22;20054;-93
2021/01/25 16:01:26;;;;;;;5.40;3.70;;;;;;;5.50;61.88;99757.63;6380892;22;20029;-92
2021/01/25 16:04:07;;;;;;;3.95;3.05;;;;;;;6.97;61.85;99998.59;6359255;22;20055;-93
2021/01/25 16:06:37;;;;;;;5.53;3.90;;;;;;;4.99;61.60;99695.16;6380710;22;20029;-91
2021/01/25 16:09:03;;;;;;;5.70;4.15;;;;;;;4.40;61.63;99597.88;6379688;22;20079;-91
2021/01/25 16:11:29;;;;;;;5.47;3.95;;;;;;;6.90;61.98;100004.28;6378578;22;20018;-93
2021/01/25 16:14:10;;;;;;;6.32;4.20;;;;;;;6.78;61.47;99983.66;6359009;22;20022;-92
2021/01/25 16:16:51;;;;;;;6.75;4.10;;;;;;;6.46;61.57;99935.13;6380465;22;20075;-92
2021/01/25 16:19:35;;;;;;;5.28;3.90;;;;;;;5.02;61.36;99721.66;6359654;22;20021;-92
2021/01/25 16:22:16;;;;;;;5.38;3.97;;;;;;;6.73;61.46;100002.22;6359666;22;20033;-92
2021/01/25 16:24:57;;;;;;;4.85;3.63;;;;;;;6.83;61.76;100016.13;6381463;22;20049;-92
2021/01/25 16:27:39;;;;;;;4.82;3.53;;;;;;;6.82;61.47;100016.25;6337070;22;20479;-92
2021/01/25 16:30:40;;;;;;;6.40;3.72;;;;;;;6.81;61.70;100018.00;6382997;22;20025;-93
2021/01/25 16:33:22;;;;;;;5.68;3.40;;;;;;;6.81;61.22;100018.00;6367004;22;20017;-92
2021/01/25 16:36:27;;;;;;;3.95;3.38;;;;;;;6.46;61.26;99956.75;6362048;22;20022;-93
2021/01/25 16:39:48;;;;;;;5.28;3.90;;;;;;;5.64;60.76;99802.38;6367330;22;20118;-93
2021/01/25 16:42:44;;;;;;;4.68;3.17;;;;;;;5.23;61.23;99767.56;6410014;22;20040;-93
2021/01/25 16:45:45;;;;;;;6.88;4.25;;;;;;;6.90;61.04;100019.88;6388119;22;20457;-92
2021/01/25 16:49:01;;;;;;;5.68;4.28;;;;;;;6.88;61.17;100026.97;6389019;22;20063;-91
